createdAt,value
2022-12-20T00:01:48.584Z,42.70
2022-12-20T00:04:15.397Z,43.80
2022-12-20T00:06:42.325Z,45.57
2022-12-20T00:09:11.773Z,43.37
2022-12-20T00:11:39.614Z,46.47
2022-12-20T00:14:06.692Z,51.00
2022-12-20T00:16:33.804Z,40.67
2022-12-20T00:19:01.909Z,47.50
2022-12-20T00:21:29.218Z,41.87
2022-12-20T00:23:56.378Z,46.33
2022-12-20T00:26:30.499Z,47.03
2022-12-20T00:28:57.573Z,45.73
2022-12-20T00:31:25.464Z,51.07
2022-12-20T00:33:53.968Z,50.17
2022-12-20T00:36:21.167Z,43.03
2022-12-20T00:38:48.801Z,43.50
2022-12-20T00:41:17.658Z,39.10
2022-12-20T00:43:44.873Z,37.03
2022-12-20T00:46:12.298Z,46.00
2022-12-20T00:48:39.320Z,42.77
2022-12-20T00:51:09.637Z,39.70
2022-12-20T00:53:37.066Z,47.33
2022-12-20T00:56:04.261Z,43.27
2022-12-20T00:58:32.561Z,47.07
2022-12-20T01:00:59.512Z,48.63
2022-12-20T01:03:26.814Z,42.30
2022-12-20T01:05:57.998Z,46.60
2022-12-20T01:08:25.640Z,48.20
2022-12-20T01:11:09.176Z,45.73
2022-12-20T01:13:37.002Z,38.57
2022-12-20T01:16:16.183Z,42.93
2022-12-20T01:18:43.041Z,47.60
2022-12-20T01:21:12.301Z,43.50
2022-12-20T01:23:39.787Z,36.77
2022-12-20T01:26:11.156Z,44.53
2022-12-20T01:28:38.790Z,42.10
2022-12-20T01:31:09.133Z,48.57
2022-12-20T01:33:36.572Z,36.40
2022-12-20T01:36:04.800Z,43.40
2022-12-20T01:38:31.942Z,43.43
2022-12-20T01:40:58.906Z,35.47
2022-12-20T01:43:26.660Z,32.67
2022-12-20T01:45:53.497Z,44.17
2022-12-20T01:48:23.859Z,42.60
2022-12-20T01:50:51.764Z,38.97
2022-12-20T01:53:20.749Z,43.63
2022-12-20T01:55:48.042Z,40.90
2022-12-20T01:58:16.666Z,38.97
2022-12-20T02:00:43.651Z,39.73
2022-12-20T02:03:12.480Z,42.30
2022-12-20T02:05:41.730Z,46.40
2022-12-20T02:08:09.498Z,41.47
2022-12-20T02:10:45.240Z,46.13
2022-12-20T02:13:17.190Z,42.60
2022-12-20T02:15:51.227Z,40.43
2022-12-20T02:18:22.944Z,43.60
2022-12-20T02:20:52.633Z,39.43
2022-12-20T02:23:38.275Z,34.27
2022-12-20T02:26:12.809Z,42.20
2022-12-20T02:28:49.236Z,45.27
2022-12-20T02:31:19.128Z,44.10
2022-12-20T02:33:48.240Z,31.17
2022-12-20T02:36:16.404Z,40.50
2022-12-20T02:38:43.426Z,41.63
2022-12-20T02:41:16.123Z,42.73
2022-12-20T02:44:02.630Z,40.97
2022-12-20T02:46:29.871Z,42.43
2022-12-20T02:48:58.694Z,43.57
2022-12-20T02:51:27.511Z,39.10
2022-12-20T02:53:55.792Z,43.07
2022-12-20T02:56:28.051Z,40.63
2022-12-20T02:58:58.907Z,41.70
2022-12-20T03:01:28.720Z,36.73
2022-12-20T03:03:57.072Z,29.90
2022-12-20T03:06:24.041Z,39.80
2022-12-20T03:08:51.129Z,40.03
2022-12-20T03:11:18.579Z,41.20
2022-12-20T03:13:46.008Z,42.23
2022-12-20T03:16:13.045Z,39.23
2022-12-20T03:18:40.116Z,39.23
2022-12-20T03:21:06.953Z,42.93
2022-12-20T03:23:33.913Z,40.43
2022-12-20T03:26:00.759Z,33.00
2022-12-20T03:28:35.554Z,34.50
2022-12-20T03:31:02.570Z,30.43
2022-12-20T03:33:37.237Z,36.57
2022-12-20T03:36:07.128Z,39.57
2022-12-20T03:38:34.285Z,35.23
2022-12-20T03:41:01.194Z,35.23
2022-12-20T03:43:28.118Z,39.80
2022-12-20T03:45:54.979Z,41.63
2022-12-20T03:48:22.151Z,41.83
2022-12-20T03:50:49.089Z,36.63
2022-12-20T03:53:16.599Z,40.03
2022-12-20T03:55:45.607Z,41.77
2022-12-20T03:58:13.678Z,38.77
2022-12-20T04:00:40.548Z,42.20
2022-12-20T04:03:33.212Z,39.57
2022-12-20T04:06:00.109Z,28.50
2022-12-20T04:08:27.542Z,39.40
2022-12-20T04:11:12.935Z,37.53
2022-12-20T04:13:52.863Z,39.03
2022-12-20T04:16:21.706Z,29.50
2022-12-20T04:18:48.603Z,46.60
2022-12-20T04:21:16.096Z,40.27
2022-12-20T04:23:47.411Z,32.20
2022-12-20T04:26:15.782Z,38.37
2022-12-20T04:28:42.620Z,41.07
2022-12-20T04:31:11.140Z,40.93
2022-12-20T04:33:39.210Z,40.27
2022-12-20T04:36:06.794Z,42.43
2022-12-20T04:38:34.658Z,43.83
2022-12-20T04:41:01.580Z,44.83
2022-12-20T04:43:37.753Z,41.07
2022-12-20T04:46:05.936Z,45.53
2022-12-20T04:51:20.633Z,46.60
2022-12-20T04:53:48.275Z,37.57
2022-12-20T04:56:33.979Z,48.50
2022-12-20T04:59:07.878Z,50.80
2022-12-20T05:01:35.961Z,45.90
2022-12-20T05:04:03.407Z,52.83
2022-12-20T05:06:34.410Z,49.03
2022-12-20T05:09:01.615Z,51.17
2022-12-20T05:11:28.636Z,48.23
2022-12-20T05:13:55.998Z,45.43
2022-12-20T05:16:23.012Z,52.90
2022-12-20T05:18:50.539Z,43.50
2022-12-20T05:21:37.086Z,46.03
2022-12-20T05:24:23.711Z,46.10
2022-12-20T05:26:59.749Z,49.40
2022-12-20T05:29:27.506Z,41.10
2022-12-20T05:31:55.122Z,51.67
2022-12-20T05:34:22.113Z,51.03
2022-12-20T05:36:52.876Z,43.90
2022-12-20T05:39:22.521Z,50.00
2022-12-20T05:41:53.919Z,50.93
2022-12-20T05:44:24.528Z,51.07
2022-12-20T05:46:55.919Z,39.80
2022-12-20T05:49:27.989Z,45.33
2022-12-20T05:51:56.237Z,48.17
2022-12-20T05:54:25.711Z,45.37
2022-12-20T05:57:12.987Z,45.43
2022-12-20T05:59:41.447Z,43.03
2022-12-20T06:02:20.801Z,45.13
2022-12-20T06:04:59.277Z,49.37
2022-12-20T06:07:26.390Z,34.97
2022-12-20T06:09:56.961Z,49.30
2022-12-20T06:12:29.882Z,40.07
2022-12-20T06:14:57.512Z,48.20
2022-12-20T06:17:24.355Z,47.60
2022-12-20T06:19:52.934Z,47.37
2022-12-20T06:22:19.891Z,45.87
2022-12-20T06:24:51.063Z,36.87
2022-12-20T06:27:23.384Z,52.63
2022-12-20T06:30:07.399Z,52.70
2022-12-20T06:32:45.863Z,49.43
2022-12-20T06:35:13.312Z,48.00
2022-12-20T06:37:40.795Z,50.57
2022-12-20T06:40:12.410Z,48.70
2022-12-20T06:42:39.388Z,51.00
2022-12-20T06:45:07.756Z,47.07
2022-12-20T06:47:34.902Z,49.57
2022-12-20T06:50:03.066Z,47.07
2022-12-20T06:52:29.958Z,52.50
2022-12-20T06:54:56.839Z,47.60
2022-12-20T06:57:24.055Z,46.07
2022-12-20T06:59:52.076Z,47.17
2022-12-20T07:02:18.972Z,46.50
2022-12-20T07:04:45.883Z,46.87
2022-12-20T07:07:13.448Z,35.60
2022-12-20T07:09:41.645Z,45.23
2022-12-20T07:12:11.768Z,43.83
2022-12-20T07:14:38.669Z,52.77
2022-12-20T07:17:06.069Z,44.20
2022-12-20T07:19:33.330Z,48.07
2022-12-20T07:22:00.128Z,47.17
2022-12-20T07:24:27.049Z,33.10
2022-12-20T07:26:53.926Z,50.10
2022-12-20T07:29:20.681Z,45.17
2022-12-20T07:31:47.716Z,50.63
2022-12-20T07:34:14.529Z,50.60
2022-12-20T07:36:41.372Z,48.03
2022-12-20T07:39:08.453Z,37.07
2022-12-20T07:41:37.619Z,43.70
2022-12-20T07:44:04.676Z,44.80
2022-12-20T07:46:31.593Z,43.30
2022-12-20T07:48:58.665Z,50.60
2022-12-20T07:51:28.279Z,39.83
2022-12-20T07:54:07.074Z,48.60
2022-12-20T07:56:40.707Z,50.50
2022-12-20T07:59:08.032Z,49.83
2022-12-20T08:01:35.678Z,41.07
2022-12-20T08:04:08.581Z,48.37
2022-12-20T08:06:37.373Z,47.83
2022-12-20T08:09:05.314Z,42.47
2022-12-20T08:11:33.216Z,49.77
2022-12-20T08:14:00.289Z,49.10
2022-12-20T08:16:27.209Z,52.13
2022-12-20T08:18:54.004Z,49.20
2022-12-20T08:21:20.951Z,48.10
2022-12-20T08:23:47.709Z,53.17
2022-12-20T08:26:14.862Z,46.70
2022-12-20T08:28:41.685Z,48.13
2022-12-20T08:31:09.450Z,48.20
2022-12-20T08:33:37.302Z,41.63
2022-12-20T08:36:06.299Z,51.10
2022-12-20T08:38:33.309Z,50.33
2022-12-20T08:41:05.205Z,41.23
2022-12-20T08:43:32.807Z,50.03
2022-12-20T08:45:59.879Z,52.67
2022-12-20T08:48:26.768Z,49.27
2022-12-20T08:51:01.393Z,49.60
2022-12-20T08:53:29.679Z,45.33
2022-12-20T08:56:17.356Z,43.37
2022-12-20T08:58:44.752Z,48.00
2022-12-20T09:01:13.616Z,43.37
2022-12-20T09:03:40.833Z,50.57
2022-12-20T09:06:08.929Z,43.30
2022-12-20T09:08:36.266Z,40.30
2022-12-20T09:11:09.358Z,48.17
2022-12-20T09:13:43.352Z,45.83
2022-12-20T09:16:11.701Z,45.00
2022-12-20T09:18:38.516Z,50.83
2022-12-20T09:21:06.363Z,47.53
2022-12-20T09:23:33.877Z,49.10
2022-12-20T09:26:13.856Z,39.97
2022-12-20T09:28:41.308Z,45.97
2022-12-20T09:31:09.668Z,47.53
2022-12-20T09:33:36.736Z,43.23
2022-12-20T09:36:04.291Z,44.90
2022-12-20T09:38:32.304Z,51.70
2022-12-20T09:41:01.002Z,45.53
2022-12-20T09:43:27.930Z,43.50
2022-12-20T09:45:56.731Z,49.87
2022-12-20T09:48:25.850Z,46.90
2022-12-20T09:51:01.796Z,42.60
2022-12-20T09:53:35.008Z,43.47
2022-12-20T09:56:15.215Z,49.27
2022-12-20T09:58:42.165Z,48.97
2022-12-20T10:01:20.097Z,42.77
2022-12-20T10:03:50.683Z,46.40
2022-12-20T10:06:20.705Z,49.53
2022-12-20T10:08:55.713Z,46.67
2022-12-20T10:11:49.867Z,51.33
2022-12-20T10:14:20.313Z,41.87
2022-12-20T10:16:51.342Z,47.50
2022-12-20T10:19:27.168Z,43.93
2022-12-20T10:22:15.188Z,51.00
2022-12-20T10:24:44.171Z,51.60
2022-12-20T10:27:20.923Z,53.40
2022-12-20T10:29:49.542Z,46.47
2022-12-20T10:32:17.959Z,45.30
2022-12-20T10:35:05.496Z,48.47
2022-12-20T10:37:32.369Z,52.33
2022-12-20T10:40:05.140Z,51.60
2022-12-20T10:42:41.181Z,47.60
2022-12-20T10:45:17.049Z,46.33
2022-12-20T10:47:46.160Z,55.80
2022-12-20T10:50:18.925Z,52.57
2022-12-20T10:52:46.347Z,53.00
2022-12-20T10:55:31.777Z,56.17
2022-12-20T10:58:02.175Z,53.07
2022-12-20T11:00:30.235Z,38.90
2022-12-20T11:03:05.752Z,45.93
2022-12-20T11:05:32.688Z,46.30
2022-12-20T11:11:13.046Z,50.43
2022-12-20T11:13:41.029Z,54.97
2022-12-20T11:16:22.155Z,53.80
2022-12-20T11:18:57.716Z,54.63
2022-12-20T11:21:32.959Z,56.57
2022-12-20T11:24:02.891Z,47.07
2022-12-20T11:26:32.567Z,55.57
2022-12-20T11:29:05.473Z,49.47
2022-12-20T11:31:44.587Z,56.33
2022-12-20T11:34:14.509Z,52.23
2022-12-20T11:36:55.232Z,53.67
2022-12-20T11:39:27.829Z,56.23
2022-12-20T11:42:03.557Z,42.70
2022-12-20T11:44:49.759Z,52.67
2022-12-20T11:47:22.316Z,54.33
2022-12-20T11:49:49.032Z,52.77
2022-12-20T11:52:28.031Z,54.50
2022-12-20T11:55:27.204Z,58.17
2022-12-20T12:00:59.681Z,54.10
2022-12-20T12:03:36.049Z,53.67
2022-12-20T12:06:05.391Z,49.67
2022-12-20T12:08:53.815Z,52.57
2022-12-20T12:12:05.176Z,52.53
2022-12-20T12:14:31.584Z,45.10
2022-12-20T12:17:04.154Z,49.60
2022-12-20T12:19:31.444Z,50.73
2022-12-20T12:22:02.872Z,50.40
2022-12-20T12:24:33.249Z,53.00
2022-12-20T12:27:00.557Z,48.03
2022-12-20T12:29:29.071Z,48.73
2022-12-20T12:32:03.023Z,52.47
2022-12-20T12:34:48.496Z,53.37
2022-12-20T12:37:15.500Z,44.53
2022-12-20T12:40:03.424Z,50.07
2022-12-20T12:42:30.679Z,45.87
2022-12-20T12:45:05.608Z,48.30
2022-12-20T12:47:38.680Z,49.40
2022-12-20T12:50:08.213Z,48.90
2022-12-20T12:52:54.735Z,40.17
2022-12-20T12:55:41.418Z,43.13
2022-12-20T12:58:14.435Z,48.80
2022-12-20T13:00:49.730Z,41.00
2022-12-20T13:03:17.764Z,48.30
2022-12-20T13:05:44.628Z,44.47
2022-12-20T13:08:18.555Z,45.90
2022-12-20T13:10:45.332Z,42.50
2022-12-20T13:13:13.707Z,41.43
2022-12-20T13:15:40.506Z,47.07
2022-12-20T13:18:10.995Z,42.77
2022-12-20T13:20:37.970Z,47.80
2022-12-20T13:23:11.912Z,44.30
2022-12-20T13:25:40.431Z,46.90
2022-12-20T13:28:19.419Z,46.73
2022-12-20T13:30:47.103Z,48.07
2022-12-20T13:33:37.625Z,44.10
2022-12-20T13:36:10.248Z,44.33
2022-12-20T13:38:57.338Z,53.73
2022-12-20T13:41:32.728Z,47.03
2022-12-20T13:44:22.098Z,50.60
2022-12-20T13:47:18.502Z,48.87
2022-12-20T13:49:45.933Z,51.60
2022-12-20T13:52:25.005Z,48.07
2022-12-20T13:54:53.842Z,51.17
2022-12-20T13:57:31.502Z,51.23
2022-12-20T14:00:05.741Z,51.93
2022-12-20T14:02:36.913Z,49.07
2022-12-20T14:05:08.576Z,51.77
2022-12-20T14:07:35.638Z,44.33
2022-12-20T14:10:05.405Z,48.37
2022-12-20T14:12:36.754Z,50.50
2022-12-20T14:15:21.136Z,47.03
2022-12-20T14:17:48.039Z,48.53
2022-12-20T14:20:22.051Z,48.70
2022-12-20T14:23:05.936Z,49.00
2022-12-20T14:25:57.025Z,51.37
2022-12-20T14:28:44.665Z,49.77
2022-12-20T14:31:30.456Z,54.53
2022-12-20T14:34:10.737Z,47.40
2022-12-20T14:36:41.768Z,52.80
2022-12-20T14:39:31.738Z,48.17
2022-12-20T14:41:58.869Z,48.20
2022-12-20T14:44:27.384Z,45.33
2022-12-20T14:47:12.658Z,49.83
2022-12-20T14:49:40.118Z,52.43
2022-12-20T14:52:36.457Z,50.50
2022-12-20T14:55:17.178Z,42.13
2022-12-20T14:57:50.509Z,53.13
2022-12-20T15:00:28.146Z,55.37
2022-12-20T15:03:24.557Z,52.70
2022-12-20T15:05:56.123Z,56.03
2022-12-20T15:08:24.440Z,48.33
2022-12-20T15:10:54.343Z,57.00
2022-12-20T15:13:23.001Z,52.63
2022-12-20T15:15:49.855Z,55.73
2022-12-20T15:18:18.176Z,43.20
2022-12-20T15:20:46.029Z,51.07
2022-12-20T15:23:15.176Z,53.60
2022-12-20T15:25:43.973Z,48.90
2022-12-20T15:28:16.410Z,46.73
2022-12-20T15:30:43.255Z,56.43
2022-12-20T15:33:15.162Z,53.13
2022-12-20T15:35:42.269Z,53.47
2022-12-20T15:38:25.353Z,53.13
2022-12-20T15:41:02.053Z,50.17
2022-12-20T15:43:31.926Z,50.27
2022-12-20T15:46:02.653Z,51.13
2022-12-20T15:48:29.532Z,53.83
2022-12-20T15:50:58.245Z,56.23
2022-12-20T15:53:31.202Z,51.67
2022-12-20T15:55:58.086Z,53.03
2022-12-20T15:58:25.728Z,58.43
2022-12-20T16:00:58.285Z,52.60
2022-12-20T16:03:27.764Z,51.90
2022-12-20T16:05:56.499Z,58.50
2022-12-20T16:08:23.332Z,60.47
2022-12-20T16:10:51.710Z,56.80
2022-12-20T16:13:25.241Z,46.97
2022-12-20T16:15:52.860Z,54.43
2022-12-20T16:18:19.744Z,51.87
2022-12-20T16:20:46.598Z,53.10
2022-12-20T16:23:22.899Z,55.70
2022-12-20T16:25:50.957Z,49.97
2022-12-20T16:28:17.955Z,43.60
2022-12-20T16:30:50.899Z,51.00
2022-12-20T16:33:21.069Z,50.30
2022-12-20T16:35:48.245Z,53.37
2022-12-20T16:38:15.193Z,55.97
2022-12-20T16:40:42.108Z,48.60
2022-12-20T16:43:13.322Z,54.07
2022-12-20T16:45:40.110Z,54.53
2022-12-20T16:48:07.106Z,55.13
2022-12-20T16:50:33.934Z,54.00
2022-12-20T16:53:00.780Z,55.33
2022-12-20T16:55:27.891Z,52.27
2022-12-20T16:57:55.470Z,51.47
2022-12-20T17:00:24.152Z,51.47
2022-12-20T17:02:54.632Z,53.87
2022-12-20T17:05:23.568Z,57.50
2022-12-20T17:07:50.418Z,54.93
2022-12-20T17:10:18.306Z,47.47
2022-12-20T17:12:45.284Z,54.43
2022-12-20T17:15:43.012Z,57.57
2022-12-20T17:18:09.847Z,41.63
2022-12-20T17:20:37.065Z,54.53
2022-12-20T17:25:53.927Z,48.63
2022-12-20T17:28:21.234Z,47.37
2022-12-20T17:30:48.029Z,53.40
2022-12-20T17:33:15.045Z,55.33
2022-12-20T17:35:42.065Z,38.80
2022-12-20T17:38:09.749Z,52.70
2022-12-20T17:40:36.620Z,50.27
2022-12-20T17:43:03.480Z,44.57
2022-12-20T17:45:32.652Z,51.60
2022-12-20T17:48:00.048Z,48.87
2022-12-20T17:50:27.893Z,56.10
2022-12-20T17:52:55.652Z,54.53
2022-12-20T17:55:24.570Z,46.67
2022-12-20T17:57:51.713Z,56.43
2022-12-20T18:00:20.960Z,53.17
2022-12-20T18:02:47.967Z,52.10
2022-12-20T18:05:15.120Z,48.00
2022-12-20T18:07:41.937Z,53.33
2022-12-20T18:10:09.434Z,51.10
2022-12-20T18:12:37.740Z,48.40
2022-12-20T18:15:07.517Z,53.33
2022-12-20T18:17:34.778Z,51.27
2022-12-20T18:20:01.726Z,49.30
2022-12-20T18:22:28.557Z,50.97
2022-12-20T18:24:55.446Z,56.27
2022-12-20T18:27:28.596Z,51.60
2022-12-20T18:29:57.430Z,56.27
2022-12-20T18:32:25.144Z,55.23
2022-12-20T18:34:52.074Z,53.30
2022-12-20T18:37:18.952Z,35.57
2022-12-20T18:39:45.869Z,51.33
2022-12-20T18:42:12.692Z,48.73
2022-12-20T18:44:39.595Z,50.83
2022-12-20T18:47:06.398Z,58.77
2022-12-20T18:49:33.465Z,55.97
2022-12-20T18:52:01.421Z,53.00
2022-12-20T18:54:28.420Z,50.80
2022-12-20T18:56:55.234Z,59.97
2022-12-20T18:59:22.069Z,50.93
2022-12-20T19:01:49.014Z,56.23
2022-12-20T19:04:22.522Z,51.80
2022-12-20T19:06:51.330Z,50.20
2022-12-20T19:09:18.164Z,53.87
2022-12-20T19:11:45.251Z,54.47
2022-12-20T19:14:12.738Z,46.67
2022-12-20T19:16:40.272Z,49.10
2022-12-20T19:19:08.730Z,53.27
2022-12-20T19:21:36.625Z,49.10
2022-12-20T19:24:05.746Z,53.30
2022-12-20T19:26:35.205Z,60.93
2022-12-20T19:29:03.434Z,52.47
2022-12-20T19:31:31.172Z,54.07
2022-12-20T19:33:59.744Z,52.33
2022-12-20T19:36:28.256Z,50.67
2022-12-20T19:38:56.028Z,44.70
2022-12-20T19:41:23.778Z,54.90
2022-12-20T19:43:53.996Z,49.97
2022-12-20T19:46:27.967Z,53.77
2022-12-20T19:48:56.045Z,53.70
2022-12-20T19:51:23.134Z,54.07
2022-12-20T19:53:51.191Z,49.90
2022-12-20T19:56:19.290Z,52.07
2022-12-20T19:58:46.277Z,52.03
2022-12-20T20:01:13.145Z,55.70
2022-12-20T20:03:40.111Z,52.13
2022-12-20T20:06:07.673Z,53.50
2022-12-20T20:08:34.623Z,54.50
2022-12-20T20:11:08.815Z,56.67
2022-12-20T20:13:36.276Z,58.33
2022-12-20T20:16:03.403Z,55.77
2022-12-20T20:18:30.913Z,46.70
2022-12-20T20:20:59.820Z,53.87
2022-12-20T20:23:27.488Z,45.57
2022-12-20T20:25:57.538Z,53.47
2022-12-20T20:28:31.296Z,55.13
2022-12-20T20:30:59.471Z,63.70
2022-12-20T20:33:26.307Z,60.73
2022-12-20T20:35:54.297Z,47.23
2022-12-20T20:38:21.397Z,48.20
2022-12-20T20:40:48.239Z,59.30
2022-12-20T20:43:15.143Z,57.27
2022-12-20T20:45:42.753Z,53.17
2022-12-20T20:48:09.897Z,55.50
2022-12-20T20:50:37.321Z,63.57
2022-12-20T20:53:04.956Z,56.03
2022-12-20T20:55:32.331Z,52.87
2022-12-20T20:57:59.204Z,56.47
2022-12-20T21:00:26.143Z,62.20
2022-12-20T21:02:53.341Z,57.27
2022-12-20T21:06:14.081Z,57.77
2022-12-20T21:08:07.828Z,53.23
2022-12-20T21:10:34.902Z,58.70
2022-12-20T21:13:03.296Z,57.07
2022-12-20T21:15:30.672Z,55.23
2022-12-20T21:17:57.511Z,49.33
2022-12-20T21:20:26.542Z,62.83
2022-12-20T21:22:54.122Z,64.13
2022-12-20T21:25:21.232Z,57.33
2022-12-20T21:27:48.378Z,63.00
2022-12-20T21:30:15.411Z,56.93
2022-12-20T21:32:42.285Z,57.27
2022-12-20T21:35:09.441Z,55.80
2022-12-20T21:37:36.883Z,54.37
2022-12-20T21:40:04.446Z,57.93
2022-12-20T21:42:32.069Z,60.20
2022-12-20T21:44:59.505Z,61.93
2022-12-20T21:47:26.341Z,59.47
2022-12-20T21:49:53.193Z,61.90
2022-12-20T21:52:20.033Z,55.87
2022-12-20T21:54:47.092Z,55.37
2022-12-20T21:57:14.052Z,64.20
2022-12-20T21:59:41.063Z,62.63
2022-12-20T22:02:10.182Z,61.03
2022-12-20T22:04:37.278Z,56.43
2022-12-20T22:07:04.177Z,51.87
2022-12-20T22:09:31.297Z,54.10
2022-12-20T22:11:58.486Z,62.53
2022-12-20T22:14:25.509Z,61.87
2022-12-20T22:16:54.870Z,52.20
2022-12-20T22:19:21.932Z,62.47
2022-12-20T22:21:55.654Z,64.40
2022-12-20T22:24:24.815Z,63.93
2022-12-20T22:26:52.297Z,67.10
2022-12-20T22:29:19.157Z,64.03
2022-12-20T22:31:46.372Z,60.53
2022-12-20T22:34:13.560Z,69.47
2022-12-20T22:36:40.455Z,64.73
2022-12-20T22:39:07.367Z,67.10
2022-12-20T22:41:37.080Z,62.23
2022-12-20T22:44:04.346Z,49.33
2022-12-20T22:49:17.252Z,49.90
2022-12-20T22:51:47.344Z,40.90
2022-12-20T22:54:18.184Z,46.70
2022-12-20T22:56:44.944Z,59.90
2022-12-20T22:59:11.819Z,60.83
2022-12-20T23:01:38.819Z,57.53
2022-12-20T23:04:08.399Z,56.30
2022-12-20T23:06:35.305Z,61.63
2022-12-20T23:09:02.160Z,64.50
2022-12-20T23:11:48.366Z,70.30
2022-12-20T23:14:34.906Z,65.93
2022-12-20T23:17:02.633Z,63.33
2022-12-20T23:19:49.816Z,64.93
2022-12-20T23:22:35.291Z,52.90
2022-12-20T23:25:02.201Z,64.87
2022-12-20T23:27:28.933Z,48.63
2022-12-20T23:29:55.803Z,64.10
2022-12-20T23:32:23.423Z,66.13
2022-12-20T23:34:50.776Z,45.17
2022-12-20T23:37:17.632Z,60.13
2022-12-20T23:39:44.444Z,57.83
2022-12-20T23:42:11.774Z,53.77
2022-12-20T23:44:38.514Z,53.73
2022-12-20T23:47:05.373Z,62.97
2022-12-20T23:49:32.195Z,61.63
2022-12-20T23:51:59.103Z,63.37
2022-12-20T23:54:25.879Z,55.43
2022-12-20T23:56:52.752Z,65.60
2022-12-20T23:59:19.592Z,58.17
